Time;durP1;ratioP1;P1;durP2;ratioP2;P2;SDS_P1;SDS_P2;PMS_P1;PMS_P2;Temp;Humidity;BMP_temperature;BMP_pressure;BME280_temperature;BME280_humidity;BME280_pressure;Samples;Min_cycle;Max_cycle;Signal;HPM_P1;HPM_P2
2022/03/23 00:01:43;;;;;;;23.45;10.35;;;;;;;4.26;52.53;101955.23;1685310;85;21099;-54
2022/03/23 00:04:14;;;;;;;27.60;9.78;;;;;;;4.23;52.56;101956.83;1685185;85;21059;-54
2022/03/23 00:06:46;;;;;;;26.00;9.63;;;;;;;4.23;52.65;101955.47;1662759;85;21106;-54
2022/03/23 00:09:15;;;;;;;22.77;9.10;;;;;;;4.24;52.73;101955.84;1685167;85;21537;-55
2022/03/23 00:11:46;;;;;;;24.35;9.23;;;;;;;4.22;52.91;101953.73;1685114;85;21098;-54
2022/03/23 00:14:15;;;;;;;24.20;8.85;;;;;;;4.20;52.91;101952.99;1685428;85;21079;-54
2022/03/23 00:16:46;;;;;;;19.00;7.90;;;;;;;4.21;53.01;101954.72;1630701;86;21525;-55
2022/03/23 00:19:16;;;;;;;18.50;8.35;;;;;;;4.21;53.07;101953.37;1649897;84;21064;-54
2022/03/23 00:21:45;;;;;;;20.32;8.43;;;;;;;4.20;53.16;101951.64;1679526;85;21061;-54
2022/03/23 00:24:14;;;;;;;20.25;7.72;;;;;;;4.20;53.25;101950.28;1713709;82;21072;-54
2022/03/23 00:26:44;;;;;;;20.52;7.42;;;;;;;4.19;53.26;101940.41;1679289;85;21665;-54
2022/03/23 00:29:14;;;;;;;19.98;7.90;;;;;;;4.19;53.27;101943.99;1713693;84;21063;-54
2022/03/23 00:31:43;;;;;;;17.95;7.40;;;;;;;4.20;53.39;101945.72;1679415;85;21027;-53
2022/03/23 00:34:12;;;;;;;18.00;7.42;;;;;;;4.19;53.44;101939.05;1713734;83;21028;-55
2022/03/23 00:36:43;;;;;;;22.17;7.30;;;;;;;4.17;53.51;101938.31;1661160;86;21039;-55
2022/03/23 00:39:13;;;;;;;20.82;7.90;;;;;;;4.15;53.68;101937.08;1736726;82;21432;-53
2022/03/23 00:41:42;;;;;;;19.45;7.40;;;;;;;4.13;53.72;101933.61;1769313;79;21052;-54
2022/03/23 00:44:11;;;;;;;18.10;6.80;;;;;;;4.12;53.71;101927.33;1788492;80;21027;-54
2022/03/23 00:46:40;;;;;;;19.30;6.87;;;;;;;4.13;53.68;101923.62;1788383;79;20969;-53
2022/03/23 00:49:10;;;;;;;20.02;6.90;;;;;;;4.15;53.81;101926.22;1788281;80;21424;-55
2022/03/23 00:51:40;;;;;;;18.23;6.53;;;;;;;4.14;53.90;101919.07;1788410;79;21008;-52
2022/03/23 00:54:11;;;;;;;15.83;6.33;;;;;;;4.14;53.89;101919.93;1745836;80;21060;-54
2022/03/23 00:56:41;;;;;;;15.65;6.83;;;;;;;4.16;53.81;101918.45;1788391;80;21000;-54
2022/03/23 00:59:11;;;;;;;19.45;6.70;;;;;;;4.14;53.73;101911.80;1788302;80;21071;-53
2022/03/23 01:01:40;;;;;;;19.92;6.72;;;;;;;4.13;53.86;101908.70;1788441;80;21056;-54
2022/03/23 01:04:13;;;;;;;16.85;6.50;;;;;;;4.13;53.85;101907.35;1788587;79;21031;-54
2022/03/23 01:06:44;;;;;;;18.62;5.87;;;;;;;4.10;53.87;101894.52;1736562;82;21084;-54
2022/03/23 01:09:14;;;;;;;17.37;6.37;;;;;;;4.11;53.91;101899.83;1661615;86;21055;-53
2022/03/23 01:11:45;;;;;;;16.57;6.03;;;;;;;4.11;53.93;101894.89;1736536;82;21019;-53
2022/03/23 01:14:16;;;;;;;19.50;5.53;;;;;;;4.11;53.98;101894.89;1661292;86;21111;-55
2022/03/23 01:16:47;;;;;;;14.78;5.90;;;;;;;4.08;53.99;101881.08;1736552;82;21087;-53
2022/03/23 01:19:17;;;;;;;16.07;5.75;;;;;;;4.11;53.97;101885.40;1661350;86;21052;-53
2022/03/23 01:21:46;;;;;;;13.48;4.83;;;;;;;4.12;54.10;101883.92;1736624;82;21515;-53
2022/03/23 01:24:16;;;;;;;14.53;5.10;;;;;;;4.13;53.97;101884.78;1675633;83;21443;-54
2022/03/23 01:26:45;;;;;;;12.70;4.92;;;;;;;4.15;53.98;101886.89;1732365;82;21100;-56
2022/03/23 01:29:14;;;;;;;13.83;4.75;;;;;;;4.14;53.97;101880.59;1721169;83;21034;-55
2022/03/23 01:31:43;;;;;;;15.80;5.72;;;;;;;4.14;54.01;101883.31;1732330;83;21028;-54
2022/03/23 01:34:15;;;;;;;18.67;5.22;;;;;;;4.14;54.04;101881.09;1721248;83;21035;-55
2022/03/23 01:36:44;;;;;;;14.83;5.47;;;;;;;4.13;54.05;101879.36;1724783;82;21566;-53
2022/03/23 01:39:15;;;;;;;17.12;5.33;;;;;;;4.09;54.19;101870.59;1774469;81;21055;-56
2022/03/23 01:41:45;;;;;;;15.43;5.47;;;;;;;4.09;54.20;101874.67;1774139;81;21036;-54
2022/03/23 01:44:20;;;;;;;16.15;5.97;;;;;;;4.09;54.20;101877.37;1774350;81;20980;-56
2022/03/23 01:47:06;;;;;;;16.85;5.70;;;;;;;4.08;54.37;101873.44;1774372;81;21047;-53
2022/03/23 01:49:42;;;;;;;17.50;5.83;;;;;;;4.04;54.27;101871.45;1774527;81;21064;-54
2022/03/23 01:52:13;;;;;;;17.45;6.78;;;;;;;4.02;54.18;101870.70;1774496;81;21027;-54
2022/03/23 01:54:42;;;;;;;17.45;5.62;;;;;;;4.02;54.30;101866.64;1774368;80;20984;-54
2022/03/23 01:57:14;;;;;;;14.50;5.53;;;;;;;3.99;54.27;101858.74;1774891;81;21013;-54
2022/03/23 01:59:44;;;;;;;14.78;5.40;;;;;;;3.99;54.29;101854.67;1774378;80;20969;-54
2022/03/23 02:02:16;;;;;;;21.70;6.12;;;;;;;3.98;54.34;101859.73;1774473;81;21057;-54
2022/03/23 02:05:02;;;;;;;19.32;5.80;;;;;;;3.96;54.37;101855.41;1774387;80;21036;-53
2022/03/23 02:07:31;;;;;;;16.87;6.35;;;;;;;3.95;54.34;101855.90;1774463;80;21017;-53
2022/03/23 02:10:00;;;;;;;18.02;6.25;;;;;;;3.94;54.28;101860.09;1774512;81;21474;-54
2022/03/23 02:12:32;;;;;;;23.38;7.72;;;;;;;3.92;54.25;101860.20;1773803;80;21056;-54
2022/03/23 02:15:13;;;;;;;19.25;7.85;;;;;;;3.93;54.23;101860.58;1730939;83;21068;-54
2022/03/23 02:17:44;;;;;;;16.30;6.47;;;;;;;3.93;54.12;101857.86;1730919;83;21004;-53
2022/03/23 02:20:12;;;;;;;20.35;7.53;;;;;;;3.93;54.10;101845.66;1731222;83;21097;-54
2022/03/23 02:22:43;;;;;;;18.80;6.60;;;;;;;3.92;54.12;101848.00;1730913;82;21088;-56
2022/03/23 02:25:12;;;;;;;25.15;7.75;;;;;;;3.92;54.05;101846.64;1730967;83;21048;-54
2022/03/23 02:27:41;;;;;;;19.67;7.83;;;;;;;3.92;54.00;101843.07;1731096;83;21106;-54
2022/03/23 02:30:11;;;;;;;18.52;7.22;;;;;;;3.88;54.00;101846.48;1731044;83;21072;-57
2022/03/23 02:32:39;;;;;;;20.32;6.97;;;;;;;3.88;54.06;101837.48;1742818;81;21056;-55
2022/03/23 02:35:11;;;;;;;17.35;7.20;;;;;;;3.89;54.02;101845.50;1774265;80;20992;-53
2022/03/23 02:37:40;;;;;;;21.10;6.85;;;;;;;3.89;54.07;101841.43;1774499;81;20989;-54
2022/03/23 02:40:11;;;;;;;21.57;8.00;;;;;;;3.89;54.09;101843.27;1774682;81;21008;-53
2022/03/23 02:42:40;;;;;;;16.07;6.55;;;;;;;3.86;54.10;101838.95;1774496;80;21071;-55
2022/03/23 02:45:14;;;;;;;22.02;7.45;;;;;;;3.86;54.17;101838.09;1774615;81;21413;-55
2022/03/23 02:47:43;;;;;;;21.00;7.17;;;;;;;3.83;54.17;101835.98;1774585;81;20972;-56
2022/03/23 02:50:13;;;;;;;22.22;7.53;;;;;;;3.82;54.22;101834.27;1774610;81;21480;-54
2022/03/23 03:01:52;;;;;;;19.45;7.72;;;;;;;3.80;54.24;101838.94;1774577;81;21087;-54
2022/03/23 03:04:16;;;;;;;20.00;8.53;;;;;;;3.63;54.64;101829.03;1774621;80;20969;-54
2022/03/23 03:06:45;;;;;;;24.80;8.98;;;;;;;3.60;54.85;101833.33;1774481;81;21036;-54
2022/03/23 03:09:16;;;;;;;22.85;9.00;;;;;;;3.58;54.96;101829.87;1764078;81;21044;-54
2022/03/23 03:11:47;;;;;;;23.40;9.28;;;;;;;3.58;55.09;101833.94;1774515;81;21004;-54
2022/03/23 03:14:17;;;;;;;24.12;9.30;;;;;;;3.57;55.10;101824.94;1774500;81;21483;-54
2022/03/23 03:16:47;;;;;;;21.15;8.75;;;;;;;3.53;55.17;101828.87;1774705;81;21028;-53
2022/03/23 03:19:17;;;;;;;22.32;9.18;;;;;;;3.50;55.25;101832.67;1774477;81;21000;-53
2022/03/23 03:21:47;;;;;;;22.42;9.75;;;;;;;3.44;55.50;101829.08;1774481;80;21048;-53
2022/03/23 03:24:20;;;;;;;26.68;9.43;;;;;;;3.37;55.64;101821.05;1774774;81;21056;-54
2022/03/23 03:26:48;;;;;;;24.43;9.10;;;;;;;3.38;55.77;101827.33;1774560;81;21056;-53
2022/03/23 03:29:18;;;;;;;23.62;9.60;;;;;;;3.34;55.88;101828.05;1774872;80;21012;-55
2022/03/23 03:31:47;;;;;;;25.60;10.60;;;;;;;3.33;56.04;101825.45;1774455;80;21059;-54
2022/03/23 03:34:16;;;;;;;25.27;10.03;;;;;;;3.31;56.15;101821.51;1774616;81;21079;-54
2022/03/23 03:36:45;;;;;;;27.25;10.95;;;;;;;3.28;56.36;101818.17;1774459;80;21171;-53
2022/03/23 03:39:14;;;;;;;31.05;11.70;;;;;;;3.23;56.54;101814.42;1774584;81;21058;-52
2022/03/23 03:41:43;;;;;;;30.02;12.23;;;;;;;3.21;56.74;101820.45;1774658;81;21014;-54
2022/03/23 03:44:14;;;;;;;29.92;11.97;;;;;;;3.18;56.93;101816.61;1774470;81;21012;-55
2022/03/23 03:46:45;;;;;;;29.18;11.95;;;;;;;3.13;57.09;101814.74;1774744;81;21437;-53
2022/03/23 03:49:18;;;;;;;31.27;11.78;;;;;;;3.11;57.31;101813.99;1774670;81;21048;-55
2022/03/23 03:51:48;;;;;;;29.90;12.15;;;;;;;3.08;57.40;101815.58;1774441;81;21451;-54
2022/03/23 03:54:17;;;;;;;26.15;11.73;;;;;;;3.05;57.51;101813.95;1774680;81;21010;-55
2022/03/23 03:56:46;;;;;;;28.80;12.68;;;;;;;2.99;57.62;101808.14;1774399;81;21472;-54
2022/03/23 03:59:16;;;;;;;27.93;11.53;;;;;;;2.95;57.77;101809.34;1774695;81;21067;-55
2022/03/23 04:01:45;;;;;;;29.42;12.00;;;;;;;2.92;57.94;101817.70;1774636;81;21071;-55
2022/03/23 04:04:16;;;;;;;28.62;12.50;;;;;;;2.85;58.08;101814.58;1774630;80;21036;-54
2022/03/23 04:06:46;;;;;;;29.60;11.85;;;;;;;2.78;58.31;101810.59;1730928;83;21067;-53
2022/03/23 04:09:17;;;;;;;27.75;11.63;;;;;;;2.75;58.46;101814.88;1730845;82;21024;-54
2022/03/23 04:11:47;;;;;;;28.52;12.23;;;;;;;2.71;58.60;101812.89;1730888;83;21452;-54
2022/03/23 04:14:19;;;;;;;31.75;12.80;;;;;;;2.68;58.72;101807.70;1731127;82;21029;-53
2022/03/23 04:16:49;;;;;;;26.57;11.55;;;;;;;2.64;58.84;101807.55;1730936;83;21020;-53
2022/03/23 04:19:20;;;;;;;29.25;11.48;;;;;;;2.61;58.92;101803.72;1731084;83;21023;-54
2022/03/23 04:21:49;;;;;;;32.38;11.83;;;;;;;2.59;58.95;101809.69;1730849;83;21060;-53
2022/03/23 04:24:19;;;;;;;29.65;11.88;;;;;;;2.56;59.10;101805.86;1668003;84;21499;-54
2022/03/23 04:26:51;;;;;;;30.77;11.35;;;;;;;2.53;59.18;101802.02;1774577;80;21032;-53
2022/03/23 04:29:24;;;;;;;28.98;11.80;;;;;;;2.53;59.21;101797.48;1774783;80;20985;-54
2022/03/23 04:31:51;;;;;;;28.65;11.68;;;;;;;2.53;59.26;101797.97;1774418;81;21028;-55
2022/03/23 04:34:20;;;;;;;29.90;12.55;;;;;;;2.52;59.27;101801.16;1774568;81;21091;-53
2022/03/23 04:36:49;;;;;;;29.85;12.03;;;;;;;2.52;59.30;101794.39;1774689;79;21048;-54
2022/03/23 04:39:19;;;;;;;27.80;11.53;;;;;;;2.53;59.29;101803.37;1775042;81;21036;-54
2022/03/23 04:41:48;;;;;;;29.23;11.93;;;;;;;2.55;59.24;101804.13;1774453;81;21047;-55
2022/03/23 04:44:17;;;;;;;27.50;12.23;;;;;;;2.57;59.28;101805.38;1774682;81;21475;-54
2022/03/23 04:46:47;;;;;;;28.00;11.48;;;;;;;2.56;59.26;101805.86;1774494;81;21011;-55
2022/03/23 04:49:16;;;;;;;30.43;12.20;;;;;;;2.57;59.34;101802.67;1774582;81;21043;-54
2022/03/23 04:51:45;;;;;;;30.72;12.78;;;;;;;2.57;59.47;101808.94;1774534;81;21000;-53
2022/03/23 04:54:15;;;;;;;31.68;12.28;;;;;;;2.59;59.40;101806.98;1774774;80;21016;-55
2022/03/23 04:56:43;;;;;;;26.52;11.95;;;;;;;2.62;59.35;101808.15;1774586;81;21471;-53
2022/03/23 04:59:13;;;;;;;30.70;12.68;;;;;;;2.64;59.30;101803.48;1774411;81;21036;-54
2022/03/23 05:01:43;;;;;;;31.02;12.03;;;;;;;2.68;59.31;101807.70;1774618;80;21072;-54
2022/03/23 05:04:12;;;;;;;28.27;12.45;;;;;;;2.71;59.24;101800.71;1774696;81;20996;-53
2022/03/23 05:06:41;;;;;;;33.02;11.95;;;;;;;2.73;59.25;101801.46;1774627;81;21013;-54
2022/03/23 05:09:11;;;;;;;29.63;12.98;;;;;;;2.76;59.29;101797.66;1774793;81;21421;-55
2022/03/23 05:11:41;;;;;;;31.25;13.03;;;;;;;2.80;59.24;101800.03;1774614;79;21028;-54
2022/03/23 05:14:11;;;;;;;28.87;13.58;;;;;;;2.85;59.21;101799.69;1774495;80;21005;-54
2022/03/23 05:16:42;;;;;;;31.57;13.15;;;;;;;2.90;59.13;101801.56;1774727;80;21132;-55
2022/03/23 05:19:11;;;;;;;33.30;13.18;;;;;;;2.97;58.95;101801.48;1774600;81;21043;-55
2022/03/23 05:21:42;;;;;;;34.38;14.28;;;;;;;3.02;58.79;101797.94;1774522;81;21502;-55
2022/03/23 05:24:11;;;;;;;32.53;13.40;;;;;;;3.08;58.61;101794.77;1774544;81;21052;-55
2022/03/23 05:26:40;;;;;;;32.17;13.93;;;;;;;3.14;58.32;101801.08;1774906;81;21032;-55
2022/03/23 05:29:09;;;;;;;31.82;13.03;;;;;;;3.20;58.05;101794.34;1774790;81;21467;-54
2022/03/23 05:31:38;;;;;;;40.00;14.78;;;;;;;3.28;57.82;101796.01;1774553;80;21016;-55
2022/03/23 05:34:08;;;;;;;34.80;14.18;;;;;;;3.34;57.53;101798.73;1774822;81;20996;-54
2022/03/23 05:36:37;;;;;;;31.75;12.73;;;;;;;3.41;57.26;101795.45;1778208;80;21071;-54
2022/03/23 05:39:06;;;;;;;35.33;13.58;;;;;;;3.48;56.96;101794.48;1788456;80;21000;-55
2022/03/23 05:41:36;;;;;;;29.23;12.75;;;;;;;3.55;56.67;101790.31;1788581;80;21035;-57
2022/03/23 05:44:05;;;;;;;31.15;13.08;;;;;;;3.62;56.34;101790.71;1788532;80;21508;-54
2022/03/23 05:46:34;;;;;;;30.43;12.68;;;;;;;3.70;55.94;101790.48;1788398;80;21027;-55
2022/03/23 05:49:05;;;;;;;28.90;11.65;;;;;;;3.76;55.60;101787.78;1788697;80;21386;-54
2022/03/23 05:51:34;;;;;;;30.10;12.80;;;;;;;3.82;55.18;101784.59;1788435;80;21039;-54
2022/03/23 05:54:04;;;;;;;31.75;12.20;;;;;;;3.90;54.80;101787.60;1788510;80;21055;-55
2022/03/23 05:56:34;;;;;;;26.15;12.05;;;;;;;3.98;54.58;101777.51;1788452;80;21416;-55
2022/03/23 05:59:05;;;;;;;30.27;12.53;;;;;;;4.05;54.37;101780.10;1788286;79;21044;-54
2022/03/23 06:01:35;;;;;;;28.20;12.45;;;;;;;4.12;54.14;101782.20;1788421;79;21154;-55
2022/03/23 06:04:05;;;;;;;28.20;12.78;;;;;;;4.19;53.76;101784.42;1788457;80;20979;-55
2022/03/23 06:06:34;;;;;;;30.10;13.32;;;;;;;4.27;53.66;101781.96;1788444;80;20995;-55
2022/03/23 06:09:03;;;;;;;32.10;13.72;;;;;;;4.36;53.42;101778.51;1788577;80;21043;-55
2022/03/23 06:11:33;;;;;;;30.32;14.18;;;;;;;4.43;53.07;101779.73;1707290;84;21036;-53
2022/03/23 06:14:03;;;;;;;34.53;15.18;;;;;;;4.54;52.68;101779.73;1634765;88;21019;-55
2022/03/23 06:16:33;;;;;;;35.00;16.02;;;;;;;4.65;52.34;101777.52;1707215;84;21048;-54
2022/03/23 06:19:02;;;;;;;34.03;15.43;;;;;;;4.74;51.89;101774.91;1634656;86;21067;-54
2022/03/23 06:21:33;;;;;;;36.35;15.60;;;;;;;4.85;51.53;101763.16;1707404;84;21059;-54
2022/03/23 06:24:02;;;;;;;38.63;15.85;;;;;;;4.97;51.26;101765.35;1634489;88;21076;-54
2022/03/23 06:26:33;;;;;;;37.23;17.37;;;;;;;5.06;51.04;101763.22;1707105;84;21024;-54
2022/03/23 06:29:02;;;;;;;40.70;18.40;;;;;;;5.15;50.89;101765.17;1653001;83;21057;-56
2022/03/23 06:31:31;;;;;;;40.33;19.67;;;;;;;5.21;50.73;101766.05;1732387;83;21429;-55
2022/03/23 06:34:04;;;;;;;38.88;19.65;;;;;;;5.28;50.50;101761.81;1721584;83;21035;-55
2022/03/23 06:36:35;;;;;;;44.10;23.20;;;;;;;5.35;50.41;101763.02;1731536;83;21016;-56
2022/03/23 06:39:04;;;;;;;171.07;29.12;;;;;;;5.43;50.20;101769.65;1774685;79;21012;-55
2022/03/23 06:41:35;;;;;;;63.75;26.17;;;;;;;5.51;49.98;101760.34;1774487;81;20985;-56
2022/03/23 06:44:07;;;;;;;64.75;25.65;;;;;;;5.58;49.78;101759.69;1774549;79;21515;-54
2022/03/23 06:46:37;;;;;;;52.75;26.62;;;;;;;5.65;49.61;101759.52;1774559;81;21040;-54
2022/03/23 06:49:06;;;;;;;55.20;28.30;;;;;;;5.72;49.46;101757.12;1774558;81;21040;-55
2022/03/23 06:51:35;;;;;;;60.08;29.02;;;;;;;5.78;49.34;101759.81;1774433;80;21044;-57
2022/03/23 06:54:04;;;;;;;64.95;29.77;;;;;;;5.87;49.11;101754.97;1774483;81;21000;-55
2022/03/23 06:56:34;;;;;;;56.00;30.65;;;;;;;5.97;48.83;101752.69;1774538;81;21012;-55
2022/03/23 06:59:08;;;;;;;60.33;32.20;;;;;;;6.09;48.48;101745.31;1774481;81;20984;-56
2022/03/23 07:01:34;;;;;;;64.45;34.23;;;;;;;6.22;48.21;101738.27;1774640;80;21029;-55
2022/03/23 07:04:04;;;;;;;66.00;33.78;;;;;;;6.31;47.94;101739.67;1774708;81;21094;-54
2022/03/23 07:06:34;;;;;;;66.80;34.88;;;;;;;6.38;47.80;101736.40;1774487;81;21024;-54
2022/03/23 07:11:55;;;;;;;64.65;33.88;;;;;;;6.45;47.47;101737.07;1774438;81;21020;-54
2022/03/23 07:14:24;;;;;;;63.65;34.10;;;;;;;6.51;47.28;101735.19;1774567;80;20980;-54
2022/03/23 07:16:52;;;;;;;64.60;34.80;;;;;;;6.57;46.96;101733.27;1774724;79;21444;-55
2022/03/23 07:19:22;;;;;;;63.33;34.15;;;;;;;6.68;46.69;101729.07;1774578;81;21484;-54
2022/03/23 07:21:51;;;;;;;65.32;35.73;;;;;;;6.76;46.46;101728.37;1774467;81;20989;-55
2022/03/23 07:24:20;;;;;;;64.42;34.30;;;;;;;6.82;46.24;101735.12;1774344;81;21052;-56
2022/03/23 07:26:51;;;;;;;61.85;34.08;;;;;;;6.87;45.97;101730.11;1774502;80;21471;-55
2022/03/23 07:29:22;;;;;;;60.60;33.53;;;;;;;6.91;45.65;101728.82;1772840;81;21032;-55
2022/03/23 07:31:53;;;;;;;63.48;32.83;;;;;;;7.02;45.27;101723.73;1774325;81;21001;-54
2022/03/23 07:34:22;;;;;;;60.30;32.67;;;;;;;7.11;45.10;101725.11;1774513;81;21051;-54
2022/03/23 07:36:51;;;;;;;55.63;31.75;;;;;;;7.19;44.94;101726.65;1775839;80;21075;-55
2022/03/23 07:39:25;;;;;;;60.12;31.97;;;;;;;7.29;44.66;101731.59;1788385;80;21059;-59
2022/03/23 07:41:53;;;;;;;61.98;30.48;;;;;;;7.40;44.40;101732.45;1788003;79;21024;-55
2022/03/23 07:44:24;;;;;;;53.98;29.87;;;;;;;7.48;44.31;101732.59;1788393;80;20980;-54
2022/03/23 07:46:52;;;;;;;65.00;31.12;;;;;;;7.60;44.25;101731.42;1788396;80;21020;-54
2022/03/23 07:49:23;;;;;;;54.48;29.70;;;;;;;7.71;44.10;101725.80;1788442;80;21008;-55
2022/03/23 07:51:53;;;;;;;56.20;29.82;;;;;;;7.81;43.94;101724.45;1788496;80;21007;-54
2022/03/23 07:54:22;;;;;;;53.83;29.82;;;;;;;7.91;43.88;101724.78;1788453;80;21020;-56
2022/03/23 07:56:52;;;;;;;58.13;30.00;;;;;;;8.01;43.90;101715.20;1788383;80;21055;-55
2022/03/23 07:59:21;;;;;;;58.13;30.85;;;;;;;8.09;43.79;101708.98;1788510;80;21500;-56
2022/03/23 08:01:50;;;;;;;60.65;32.95;;;;;;;8.38;43.56;101712.98;1788249;80;21047;-55
2022/03/23 08:04:20;;;;;;;64.45;32.42;;;;;;;8.90;43.26;101713.63;1788231;80;21012;-55
2022/03/23 08:06:48;;;;;;;68.40;35.03;;;;;;;9.65;42.34;101715.53;1788372;80;21031;-54
2022/03/23 08:09:18;;;;;;;70.72;35.48;;;;;;;10.44;41.01;101708.56;1788468;80;21004;-56
2022/03/23 08:11:48;;;;;;;62.13;34.43;;;;;;;11.18;39.93;101700.03;1788381;80;21012;-56
2022/03/23 08:14:18;;;;;;;65.75;35.75;;;;;;;11.90;38.46;101702.47;1788425;80;20995;-56
2022/03/23 08:16:47;;;;;;;55.10;31.12;;;;;;;12.59;37.50;101695.91;1788385;80;21027;-56
2022/03/23 08:19:16;;;;;;;56.65;33.23;;;;;;;13.23;36.27;101692.48;1788351;79;21043;-55
2022/03/23 08:21:45;;;;;;;51.13;30.02;;;;;;;13.86;35.05;101687.13;1788261;80;21004;-55
2022/03/23 08:24:14;;;;;;;45.73;25.37;;;;;;;14.36;34.70;101679.52;1788390;80;21031;-55
2022/03/23 08:26:43;;;;;;;32.78;19.67;;;;;;;14.84;33.78;101684.94;1788371;79;21039;-56
2022/03/23 08:29:13;;;;;;;35.25;18.95;;;;;;;15.32;32.59;101684.41;1788403;80;21432;-57
2022/03/23 08:31:42;;;;;;;32.95;19.60;;;;;;;15.73;32.21;101684.63;1788447;80;21020;-55
2022/03/23 08:34:12;;;;;;;31.93;19.80;;;;;;;16.07;31.56;101683.28;1788852;79;21048;-55
2022/03/23 08:36:41;;;;;;;28.70;17.10;;;;;;;16.39;30.83;101674.03;1788316;80;20988;-55
2022/03/23 08:39:11;;;;;;;34.95;18.27;;;;;;;16.71;30.70;101666.44;1775584;80;21040;-55
2022/03/23 08:41:40;;;;;;;38.13;20.08;;;;;;;17.12;29.65;101672.45;1774518;81;21040;-56
2022/03/23 08:44:10;;;;;;;32.73;17.98;;;;;;;17.41;29.31;101676.22;1774486;81;21032;-56
2022/03/23 08:46:38;;;;;;;30.08;18.70;;;;;;;17.56;28.73;101671.04;1774490;81;21012;-54
2022/03/23 08:49:08;;;;;;;30.10;19.70;;;;;;;17.61;28.38;101668.48;1774663;79;21004;-55
2022/03/23 08:51:38;;;;;;;34.38;21.20;;;;;;;17.72;27.77;101673.41;1774471;81;21001;-55
2022/03/23 08:54:09;;;;;;;39.75;22.73;;;;;;;17.71;27.80;101664.25;1774645;81;21452;-55
2022/03/23 08:56:38;;;;;;;41.15;24.45;;;;;;;17.63;28.00;101667.20;1774591;81;21049;-55
2022/03/23 08:59:08;;;;;;;52.70;28.60;;;;;;;17.48;27.78;101657.36;1774548;81;21020;-55
2022/03/23 09:01:37;;;;;;;54.40;28.52;;;;;;;17.29;28.28;101665.44;1774450;81;21232;-56
2022/03/23 09:04:08;;;;;;;47.90;26.17;;;;;;;17.17;28.24;101662.98;1774584;81;21019;-56
2022/03/23 09:06:37;;;;;;;48.60;25.82;;;;;;;16.96;28.08;101657.61;1774698;80;21004;-57
2022/03/23 09:09:09;;;;;;;56.68;25.50;;;;;;;16.66;28.33;101649.60;1774997;79;21036;-56
2022/03/23 09:11:41;;;;;;;63.42;30.88;;;;;;;16.39;28.83;101654.67;1774842;81;21032;-57
2022/03/23 09:14:12;;;;;;;52.33;23.52;;;;;;;16.21;29.26;101648.27;1774634;80;21457;-56
2022/03/23 09:16:41;;;;;;;70.83;31.02;;;;;;;16.00;29.49;101640.91;1774929;80;21039;-55
2022/03/23 09:19:12;;;;;;;68.95;32.00;;;;;;;15.77;29.65;101634.28;1774595;81;21051;-56
2022/03/23 09:21:41;;;;;;;95.15;41.30;;;;;;;15.60;30.04;101632.84;1774574;79;21445;-55
2022/03/23 09:24:11;;;;;;;100.62;44.63;;;;;;;15.46;30.15;101634.61;1774560;81;21020;-54
2022/03/23 09:26:42;;;;;;;111.92;47.33;;;;;;;15.35;30.31;101631.55;1774729;81;21044;-56
2022/03/23 09:29:11;;;;;;;119.90;51.30;;;;;;;15.20;30.47;101626.95;1774750;81;21281;-56
2022/03/23 09:31:40;;;;;;;114.67;47.35;;;;;;;15.09;30.71;101629.39;1774641;81;21239;-55
2022/03/23 09:34:11;;;;;;;95.85;39.53;;;;;;;14.99;31.16;101617.83;1774518;81;21000;-55
2022/03/23 09:39:27;;;;;;;101.55;46.63;;;;;;;14.89;31.05;101616.21;1774661;80;21071;-54
2022/03/23 09:41:58;;;;;;;122.10;46.92;;;;;;;14.84;31.23;101617.33;1774431;81;21452;-55
2022/03/23 09:44:34;;;;;;;94.00;42.93;;;;;;;14.79;31.33;101610.69;1774603;81;20973;-56
2022/03/23 09:46:58;;;;;;;80.90;37.75;;;;;;;14.75;31.50;101608.84;1774175;80;21032;-57
2022/03/23 09:49:29;;;;;;;81.57;38.78;;;;;;;14.71;31.41;101599.25;1774297;80;21012;-55
2022/03/23 09:51:58;;;;;;;80.97;38.40;;;;;;;14.65;31.42;101590.38;1774444;81;21075;-55
2022/03/23 09:54:27;;;;;;;79.10;35.45;;;;;;;14.62;31.62;101589.39;1774545;81;21024;-55
2022/03/23 09:56:56;;;;;;;66.15;31.33;;;;;;;14.59;31.75;101592.02;1774713;81;21036;-55
2022/03/23 09:59:27;;;;;;;69.15;32.38;;;;;;;14.54;31.67;101587.61;1774487;79;21409;-56
2022/03/23 10:02:08;;;;;;;78.83;34.15;;;;;;;14.48;31.85;101580.63;1774679;81;21056;-56
2022/03/23 10:05:30;;;;;;;61.75;26.68;;;;;;;14.47;32.01;101579.78;1774528;81;21461;-56
2022/03/23 10:08:46;;;;;;;58.17;25.37;;;;;;;14.47;31.85;101574.79;1731019;83;20993;-56
2022/03/23 10:11:44;;;;;;;55.48;25.15;;;;;;;14.44;31.89;101567.76;1701801;84;21511;-56
2022/03/23 10:14:46;;;;;;;;;;;;;;;14.45;31.90;101565.86;1601774;90;21055;-55
2022/03/23 10:18:01;;;;;;;57.33;23.62;;;;;;;14.44;31.69;101564.14;1606932;88;20151;-56
2022/03/23 10:20:30;;;;;;;66.35;28.25;;;;;;;14.42;32.02;101558.83;1606789;89;21057;-55
2022/03/23 10:23:01;;;;;;;73.50;32.85;;;;;;;14.43;32.11;101550.88;1607196;89;21061;-55
2022/03/23 10:25:31;;;;;;;73.30;31.07;;;;;;;14.43;31.98;101548.65;1617752;86;21101;-57
2022/03/23 10:28:00;;;;;;;71.47;31.75;;;;;;;14.41;31.82;101543.30;1659988;86;21489;-55
2022/03/23 10:30:37;;;;;;;59.18;27.50;;;;;;;14.39;32.05;101544.02;1659816;86;21466;-55
2022/03/23 10:33:22;;;;;;;62.48;27.22;;;;;;;14.36;31.98;101538.03;1714730;83;21143;-54
2022/03/23 10:35:52;;;;;;;60.80;28.62;;;;;;;14.36;32.08;101534.75;1737218;81;21067;-55
2022/03/23 10:38:24;;;;;;;76.28;31.65;;;;;;;14.40;32.29;101531.08;1778573;80;21117;-55
2022/03/23 10:40:55;;;;;;;69.65;31.40;;;;;;;14.39;32.25;101522.48;1788187;80;20992;-55
2022/03/23 10:43:37;;;;;;;75.20;34.90;;;;;;;14.39;32.29;101522.48;1788437;80;21043;-56
2022/03/23 10:46:13;;;;;;;75.55;33.00;;;;;;;14.36;32.38;101514.07;1788208;80;21545;-56
2022/03/23 10:49:04;;;;;;;66.77;30.65;;;;;;;14.35;32.59;101512.89;1788430;80;21007;-56
2022/03/23 10:51:36;;;;;;;71.12;30.77;;;;;;;14.33;32.58;101508.09;1788244;80;20996;-55
2022/03/23 10:54:18;;;;;;;69.10;29.25;;;;;;;14.32;32.69;101498.97;1787924;80;21039;-55
2022/03/23 10:56:49;;;;;;;57.93;26.68;;;;;;;14.35;32.94;101493.59;1788141;80;20995;-56
2022/03/23 10:59:25;;;;;;;60.60;27.15;;;;;;;14.37;32.76;101489.59;1788206;80;21050;-55
2022/03/23 11:02:08;;;;;;;55.55;26.27;;;;;;;14.38;32.76;101480.79;1788235;79;21051;-54
2022/03/23 11:04:57;;;;;;;51.70;25.08;;;;;;;14.38;32.97;101484.40;1788104;80;21047;-55
2022/03/23 11:07:31;;;;;;;50.05;24.45;;;;;;;14.38;32.87;101478.03;1787737;80;21058;-55
2022/03/23 11:15:47;;;;;;;46.18;23.40;;;;;;;14.33;32.76;101457.94;1788153;80;21085;-54
2022/03/23 11:18:19;;;;;;;44.63;21.77;;;;;;;14.32;32.76;101458.14;1788503;80;21442;-55
2022/03/23 11:20:56;;;;;;;38.48;20.77;;;;;;;14.30;32.64;101455.55;1788345;79;21056;-56
2022/03/23 11:23:33;;;;;;;43.17;20.48;;;;;;;14.33;32.73;101448.81;1788195;80;21031;-54
2022/03/23 11:26:09;;;;;;;48.60;21.20;;;;;;;14.32;32.84;101438.84;1788233;79;21471;-56
2022/03/23 11:28:44;;;;;;;39.98;20.08;;;;;;;14.32;32.82;101439.69;1788203;80;21447;-54
2022/03/23 11:31:16;;;;;;;44.35;18.45;;;;;;;14.33;32.74;101435.88;1788424;79;21004;-55
2022/03/23 11:33:50;;;;;;;38.48;17.82;;;;;;;14.39;32.66;101435.62;1788421;79;21058;-56
2022/03/23 11:36:20;;;;;;;37.78;18.62;;;;;;;14.46;32.60;101433.81;1788435;80;20996;-54
2022/03/23 11:38:54;;;;;;;38.13;18.82;;;;;;;14.51;32.47;101428.55;1783169;80;21512;-53
2022/03/23 11:41:20;;;;;;;35.70;16.87;;;;;;;14.49;32.34;101417.72;1774191;79;21005;-55
2022/03/23 11:43:49;;;;;;;37.48;19.40;;;;;;;14.49;32.43;101415.48;1774643;81;21480;-56
2022/03/23 11:46:23;;;;;;;33.80;17.05;;;;;;;14.46;32.48;101411.22;1774498;81;21016;-56
2022/03/23 11:49:15;;;;;;;35.83;18.35;;;;;;;14.45;32.42;101404.53;1774500;80;21032;-55
2022/03/23 11:52:36;;;;;;;34.98;18.00;;;;;;;14.43;32.57;101402.50;1774383;81;21028;-54
2022/03/23 11:55:38;;;;;;;36.35;18.05;;;;;;;14.43;32.51;101402.50;1774656;81;21035;-56
2022/03/23 11:58:21;;;;;;;36.70;17.87;;;;;;;14.41;32.51;101393.53;1764000;81;21028;-55